Terminal Aerodrome Forecast
Issued by NWS Riverton, WY

Home | Current Version | Previous Version | Text Only | Print | Product List | Glossary On
Versions: 1 2 3 4 5 6 7 8 9 10 11 12 13 14
000
FTUS45 KRIW 310531
TAFRIW
TAF
KRIW 310531Z 3106/0106 30017G25KT P6SM VCSH FEW100 SCT120
     FM310800 29011KT P6SM FEW120
     FM312200 30012G20KT P6SM VCTS SCT090CB BKN120
     FM010230 30010KT P6SM SCT120=

USA.gov is the U.S. government's official web portal to all federal, state and local government web resources and services.